Nearby METAR Reports

 

KCIC - Chico Municipal, California, USA
Distance from station: SSW 12mi, 20km
Updated: Fri, 23-Jun-2017 1:15am PDT
Clear
Clear
 Wind from calm
Wind: Calm
Temperature: 82°F , 28°C
Dew Point: 54°F , 12°C
Humidity: 37%
Barometer: 29.72 inHg , 1006.4 hPa
Clouds: Clear
Visibility: 10 miles , 16 km
2017/06/23 08:15 KCIC 230815Z AUTO 00000KT 10SM CLR 28/12 A2972 RMK AO1
KOVE - Oroville, California, USA
Distance from station: SSE 31mi, 50km
Updated: Fri, 23-Jun-2017 12:53am PDT
Clear
Clear
 Wind from SE
Wind: SE 5 mph , 7 km/h
Temperature: 84°F , 29°C
Heat Index: 84°F , 29°C
Dew Point: 61°F , 16°C
Humidity: 45%
Barometer: 29.72 inHg , 1006.4 hPa
Clouds: Clear
Visibility: 10 miles , 16 km
2017/06/23 07:53 KOVE 230753Z AUTO 13004KT 10SM CLR 29/16 A2972 RMK AO2 SLP064 T02940156 404110261 TSNO
 
KRBL - Red Bluff, California, USA
Distance from station: WNW 31mi, 50km
Updated: Fri, 23-Jun-2017 12:54am PDT
Clear
Clear
 Wind from NNW
Wind: NNW 13 mph , 20 km/h
Temperature: 91°F , 33°C
Dew Point: 37°F , 3°C
Humidity: 15%
Barometer: 29.73 inHg , 1006.8 hPa
Clouds: Clear
Visibility: 10 miles , 16 km
2017/06/23 07:54 KRBL 230754Z AUTO 34011KT 10SM CLR 33/03 A2973 RMK AO2 SLP061 T03330028 404330306 TSNO
KRDD - Redding, California, USA
Distance from station: NW 50mi, 80km
Updated: Fri, 23-Jun-2017 12:53am PDT
Clear
Clear
 Wind from NNW
Wind: NNW 15 mph , 24 km/h, Gust: 21 mph , 33 km/h
Temperature: 93°F , 34°C
Dew Point: 36°F , 2°C
Humidity: 13%
Barometer: 29.75 inHg , 1007.5 hPa
Clouds: Clear
Visibility: 10 miles , 16 km
2017/06/23 07:53 KRDD 230753Z 34013G18KT 10SM CLR 34/02 A2975 RMK AO2 SLP066 T03390017 404280294
 
KMYV - Marysville, California, USA
Distance from station: S 59mi, 95km
Updated: Fri, 23-Jun-2017 12:53am PDT
Clear
Clear
 Wind from S
Wind: S 8 mph , 13 km/h
Temperature: 81°F , 27°C
Heat Index: 83°F , 28°C
Dew Point: 64°F , 18°C
Humidity: 58%
Barometer: 29.71 inHg , 1006.1 hPa
Clouds: Clear
Visibility: 10 miles , 16 km
2017/06/23 07:53 KMYV 230753Z AUTO 17007KT 10SM CLR 27/18 A2971 RMK AO2 SLP063 T02670178 404220267
KBAB - Beale Afb/Marysv, California, USA
Distance from station: SSE 59mi, 96km
Updated: Fri, 23-Jun-2017 12:58am PDT
Clear
Clear
 Wind from SSE
Wind: SSE 6 mph , 9 km/h
Temperature: 81°F , 27°C
Heat Index: 82°F , 28°C
Dew Point: 63°F , 17°C
Humidity: 54%
Barometer: 29.69 inHg , 1005.4 hPa
Clouds: Clear
Visibility: 10 miles , 16 km
2017/06/23 07:58 KBAB 230758Z AUTO 15005KT 10SM CLR 27/17 A2969 RMK AO2 SLP056 T02700171 404160257 $
 
KGOO - Grass Valley, California, USA
Distance from station: SE 63mi, 102km
Updated: Fri, 05-May-2017 6:55am PDT
NOT Current
Clear
Clear
 Wind from SE
Wind: SE 3 mph , 6 km/h
Temperature: 59°F , 15°C
Dew Point: 46°F , 8°C
Humidity: 63%
Barometer: 29.93 inHg , 1013.5 hPa
Clouds: Clear
Visibility: 10 miles , 16 km
2017/05/05 13:55 KGOO 051355Z AUTO 14003KT 10SM CLR 15/08 A2993 RMK AO1
KBLU - Emigrant Gap, California, USA
Distance from station: SE 71mi, 115km
Updated: Fri, 23-Jun-2017 12:52am PDT
Clear
Clear
 Wind from NE
Wind: NE 5 mph , 7 km/h
Temperature: 75°F , 24°C
Dew Point: 37°F , 3°C
Humidity: 25%
Barometer: 30.13 inHg , 1020.3 hPa
Clouds: Clear
Visibility: 10 miles , 16 km
2017/06/23 07:52 KBLU 230752Z AUTO 05004KT 10SM CLR 24/03 A3013 RMK AO2 SLP073 T02390028 403170217 TSNO
 
KLHM - Lincoln, California, USA
Distance from station: SSE 74mi, 119km
Updated: Fri, 23-Jun-2017 1:15am PDT
Clear
Clear
 Wind from SSE
Wind: SSE 9 mph , 15 km/h
Temperature: 81°F , 27°C
Heat Index: 81°F , 27°C
Dew Point: 55°F , 13°C
Humidity: 42%
Barometer: 29.71 inHg , 1006.1 hPa
Clouds: Clear
Visibility: 10 miles , 16 km
2017/06/23 08:15 KLHM 230815Z AUTO 15008KT 10SM CLR 27/13 A2971 RMK AO1
KAUN - Auburn Muni, California, USA
Distance from station: SSE 77mi, 123km
Updated: Fri, 23-Jun-2017 1:15am PDT
Clear
Clear
 Wind from ESE
Wind: ESE 5 mph , 7 km/h
Temperature: 81°F , 27°C
Heat Index: 82°F , 28°C
Dew Point: 61°F , 16°C
Humidity: 51%
Barometer: 29.82 inHg , 1009.8 hPa
Clouds: Clear
Visibility: 10 miles , 16 km
2017/06/23 08:15 KAUN 230815Z AUTO 11004KT 10SM CLR 27/16 A2982 RMK AO1
 
KO54 - Weaverville, California, USA
Distance from station: NW 84mi, 135km
Updated: Fri, 16-Jun-2017 5:55pm PDT
NOT Current

 Wind from SW
Wind: SW 12 mph , 19 km/h, Gust: 21 mph , 33 km/h
Temperature: 81°F , 27°C
Dew Point: 54°F , 12°C
Humidity: 39%
Barometer: 30.03 inHg , 1016.9 hPa
Visibility: 10 miles , 16 km
2017/06/17 00:55 KO54 170055Z AUTO 23010G18KT 190V250 10SM 27/12 A3003 RMK AO1
KSMF - Sacramento/Metro, California, USA
Distance from station: S 86mi, 139km
Updated: Fri, 23-Jun-2017 12:53am PDT
Clear
Clear
 Wind from SSE
Wind: SSE 13 mph , 20 km/h
Temperature: 75°F , 24°C
Dew Point: 57°F , 14°C
Humidity: 54%
Barometer: 29.71 inHg , 1006.1 hPa
Clouds: Clear
Visibility: 10 miles , 16 km
2017/06/23 07:53 KSMF 230753Z 16011KT 10SM CLR 24/14 A2971 RMK AO2 SLP059 T02440144 404170228
 
KMCC - Mcclellan Afb, California, USA
Distance from station: SSE 90mi, 145km
Updated: Fri, 23-Jun-2017 1:15am PDT
Clear
Clear
 Wind from SSE
Wind: SSE 10 mph , 17 km/h
Temperature: 77°F , 25°C
Dew Point: 55°F , 13°C
Humidity: 47%
Barometer: 29.74 inHg , 1007.1 hPa
Clouds: Clear
Visibility: 10 miles , 16 km
2017/06/23 08:15 KMCC 230815Z AUTO 16009KT 10SM CLR 25/13 A2974 RMK AO2
KTRK - Truckee Tahoe, California, USA
Distance from station: ESE 96mi, 155km
Updated: Fri, 23-Jun-2017 1:15am PDT
Clear
Clear
 Wind from calm
Wind: Calm
Temperature: 54°F , 12°C
Dew Point: 43°F , 6°C
Humidity: 67%
Barometer: 30.22 inHg , 1023.4 hPa
Clouds: Clear
Visibility: 10 miles , 16 km
2017/06/23 08:15 KTRK 230815Z AUTO 00000KT 10SM CLR 12/06 A3022 RMK AO2
 
KUKI - Ukiah, California, USA
Distance from station: SW 97mi, 156km
Updated: Fri, 23-Jun-2017 12:56am PDT
Clear
Clear
 Wind from varies
Wind: varies 3 mph , 6 km/h
Temperature: 73°F , 23°C
Dew Point: 55°F , 13°C
Humidity: 53%
Barometer: 29.81 inHg , 1009.5 hPa
Clouds: Clear
Visibility: 10 miles , 16 km
2017/06/23 07:56 KUKI 230756Z AUTO VRB03KT 10SM CLR 23/13 A2981 RMK AO2 SLP082 T02330128 404390200
KEDU - Davis, California, USA
Distance from station: S 97mi, 157km
Updated: Fri, 23-Jun-2017 1:10am PDT
Clear
Clear
 Wind from S
Wind: S 3 mph , 6 km/h
Temperature: 72°F , 22°C
Dew Point: 57°F , 14°C
Humidity: 61%
Barometer: 29.72 inHg , 1006.4 hPa
Clouds: Clear
Visibility: 10 miles , 16 km
2017/06/23 08:10 KEDU 230810Z AUTO 17003KT 10SM CLR 22/14 A2972 RMK AO1
 
KMHR - Mather Field, California, USA
Distance from station: SSE 100mi, 161km
Updated: Thu, 22-Jun-2017 11:30pm PDT
NOT Current
Clear
Clear
 Wind from SE
Wind: SE 8 mph , 13 km/h
Temperature: 75°F , 24°C
Dew Point: 59°F , 15°C
Humidity: 57%
Barometer: 29.72 inHg , 1006.4 hPa
Clouds: Clear
Visibility: 10 miles , 16 km
2017/06/23 06:30 KMHR 230630Z 13007KT 10SM SKC 24/15 A2972
KMHS - Mount Shasta, California, USA
Distance from station: NNW 100mi, 161km
Updated: Fri, 23-Jun-2017 12:56am PDT
Clear
Clear
 Wind from calm
Wind: Calm
Temperature: 63°F , 17°C
Dew Point: 41°F , 5°C
Humidity: 45%
Barometer: 30.08 inHg , 1018.6 hPa
Clouds: Clear
Visibility: 10 miles , 16 km
2017/06/23 07:56 KMHS 230756Z AUTO 00000KT 10SM CLR 17/05 A3008 RMK AO2 SLP167 T01720050 403110156
 
KRTS - Reno/Stead, Nevada, USA
Distance from station: E 100mi, 161km
Updated: Fri, 23-Jun-2017 1:15am PDT
Clear
Clear
 Wind from calm
Wind: Calm
Temperature: 63°F , 17°C
Dew Point: 34°F , 1°C
Humidity: 34%
Barometer: 30.15 inHg , 1021 hPa
Clouds: Clear
Visibility: 10 miles , 16 km
2017/06/23 08:15 KRTS 230815Z AUTO 00000KT 10SM CLR 17/01 A3015 RMK AO2
KSAC - Sacramento, California, USA
Distance from station: S 100mi, 162km
Updated: Fri, 23-Jun-2017 12:53am PDT
Clear
Clear
 Wind from S
Wind: S 3 mph , 6 km/h
Temperature: 73°F , 23°C
Dew Point: 57°F , 14°C
Humidity: 57%
Barometer: 29.73 inHg , 1006.8 hPa
Clouds: Clear
Visibility: 10 miles , 16 km
2017/06/23 07:53 KSAC 230753Z AUTO 17003KT 10SM CLR 23/14 A2973 RMK AO2 RAB30E41 SLP066 P0000 T02280144 404170217